Time;durP1;ratioP1;P1;durP2;ratioP2;P2;SDS_P1;SDS_P2;PMS_P1;PMS_P2;Temp;Humidity;BMP_temperature;BMP_pressure;BME280_temperature;BME280_humidity;BME280_pressure;Samples;Min_cycle;Max_cycle;Signal;HPM_P1;HPM_P2
2024/03/13 00:01:38;;;;;;;;;;;;;;;17.36;48.63;98550.58;67522;1283;1015988;-60
2024/03/13 00:04:43;;;;;;;;;;;;;;;17.47;48.29;98556.20;67511;1283;1016421;-61
2024/03/13 00:07:46;;;;;;;;;;;;;;;17.39;48.49;98555.77;67473;1283;1016250;-62
2024/03/13 00:10:49;;;;;;;;;;;;;;;17.44;48.31;98558.13;67486;1283;1016679;-61
2024/03/13 00:13:52;;;;;;;;;;;;;;;17.28;48.62;98553.77;67448;1283;1016209;-61
2024/03/13 00:16:54;;;;;;;;;;;;;;;17.03;49.30;98553.03;67519;1283;1016468;-61
2024/03/13 00:19:57;;;;;;;;;;;;;;;17.29;48.56;98554.38;67477;1283;1016501;-61
2024/03/13 00:23:01;;;;;;;;;;;;;;;17.35;48.33;98553.30;67442;1283;1016291;-60
2024/03/13 00:26:04;;;;;;;;;;;;;;;17.36;48.20;98554.95;67447;1283;1016437;-61
2024/03/13 00:29:08;;;;;;;;;;;;;;;17.29;48.45;98551.88;67485;1283;1018040;-61
2024/03/13 00:32:15;;;;;;;;;;;;;;;17.39;48.23;98555.42;67440;1283;1018418;-60
2024/03/13 00:35:17;;;;;;;;;;;;;;;17.44;48.06;98557.24;67437;1283;1016472;-61
2024/03/13 00:38:20;;;;;;;;;;;;;;;17.31;48.45;98557.23;67442;1283;1016517;-61
2024/03/13 00:41:22;;;;;;;;;;;;;;;17.34;48.61;98556.60;67469;1283;1016294;-60
2024/03/13 00:44:25;;;;;;;;;;;;;;;17.53;48.05;98559.77;67499;1283;1016491;-61
2024/03/13 00:47:27;;;;;;;;;;;;;;;17.48;48.07;98562.31;67443;1283;1016177;-65
2024/03/13 00:50:30;;;;;;;;;;;;;;;17.34;48.39;98558.19;67431;1283;1016606;-61
2024/03/13 00:53:32;;;;;;;;;;;;;;;17.39;48.21;98562.48;67452;1283;1016195;-65
2024/03/13 00:56:35;;;;;;;;;;;;;;;17.32;48.18;98562.97;67470;1283;1017861;-60
2024/03/13 00:59:39;;;;;;;;;;;;;;;17.12;48.72;98564.80;67439;1283;1016571;-61
2024/03/13 01:02:42;;;;;;;;;;;;;;;16.96;49.09;98563.77;67447;1283;1016339;-61
2024/03/13 01:05:45;;;;;;;;;;;;;;;16.93;49.14;98564.02;67484;1282;1016163;-61
2024/03/13 01:08:50;;;;;;;;;;;;;;;17.06;48.93;98565.19;67432;1283;1016460;-61
2024/03/13 01:11:53;;;;;;;;;;;;;;;17.04;49.06;98566.59;67484;1283;1018531;-60
2024/03/13 01:14:55;;;;;;;;;;;;;;;17.04;48.90;98568.70;67463;1283;1016504;-61
2024/03/13 01:17:58;;;;;;;;;;;;;;;17.10;48.81;98564.27;67436;1283;1016380;-61
2024/03/13 01:21:00;;;;;;;;;;;;;;;17.18;48.85;98563.46;67426;1283;1016149;-60
2024/03/13 01:24:04;;;;;;;;;;;;;;;17.32;48.51;98567.21;67426;1283;1016239;-61
2024/03/13 01:27:07;;;;;;;;;;;;;;;17.37;48.54;98565.84;67503;1283;1016297;-61
2024/03/13 01:30:09;;;;;;;;;;;;;;;17.42;48.36;98566.97;67470;1283;1016464;-60
2024/03/13 01:33:12;;;;;;;;;;;;;;;17.33;48.52;98565.90;67440;1283;1016537;-61
2024/03/13 01:37:55;;;;;;;;;;;;;;;17.30;48.53;98565.30;67465;1283;1017108;-61
2024/03/13 01:39:37;;;;;;;;;;;;;;;17.38;48.38;98567.11;67465;1283;1016368;-61
2024/03/13 01:56:15;;;;;;;;;;;;;;;17.23;48.63;98569.27;67483;1283;1015961;-62
2024/03/13 01:59:23;;;;;;;;;;;;;;;17.17;48.70;98572.81;67492;1283;1016497;-62
2024/03/13 02:02:25;;;;;;;;;;;;;;;17.18;48.58;98571.52;67513;1283;1016978;-62
2024/03/13 02:05:28;;;;;;;;;;;;;;;17.23;48.42;98573.88;67449;1283;1016505;-62
2024/03/13 02:08:30;;;;;;;;;;;;;;;17.24;48.19;98574.41;67447;1283;1016522;-62
2024/03/13 02:11:33;;;;;;;;;;;;;;;17.17;48.47;98573.33;67480;1283;1016495;-63
2024/03/13 02:14:35;;;;;;;;;;;;;;;17.10;48.64;98576.48;67504;1283;1016433;-62
2024/03/13 02:17:38;;;;;;;;;;;;;;;17.08;48.63;98571.81;67457;1283;1016491;-62
2024/03/13 02:20:41;;;;;;;;;;;;;;;17.11;48.51;98578.65;67472;1283;1016197;-64
2024/03/13 02:23:43;;;;;;;;;;;;;;;17.28;48.29;98573.73;67488;1283;1016427;-65
2024/03/13 02:26:46;;;;;;;;;;;;;;;17.23;48.31;98572.06;67516;1283;1016526;-62
2024/03/13 02:29:51;;;;;;;;;;;;;;;17.36;48.18;98573.40;67495;1284;1016443;-63
2024/03/13 02:32:55;;;;;;;;;;;;;;;17.35;48.34;98569.98;67485;1283;1016457;-62
2024/03/13 02:35:58;;;;;;;;;;;;;;;16.99;49.42;98571.06;67490;1283;1016500;-62
2024/03/13 02:39:01;;;;;;;;;;;;;;;16.88;49.34;98576.16;67414;1284;1016258;-62
2024/03/13 02:42:03;;;;;;;;;;;;;;;16.78;49.73;98577.24;67482;1283;1016376;-63
2024/03/13 02:45:06;;;;;;;;;;;;;;;16.64;49.97;98581.11;67490;1283;1016246;-62
2024/03/13 02:48:08;;;;;;;;;;;;;;;16.60;50.05;98576.67;67484;1284;1016186;-62
2024/03/13 02:51:11;;;;;;;;;;;;;;;16.32;50.91;98587.98;67461;1283;1016790;-65
2024/03/13 02:54:14;;;;;;;;;;;;;;;16.35;50.74;98588.42;67500;1284;1016586;-62
2024/03/13 02:57:18;;;;;;;;;;;;;;;16.36;50.72;98583.58;67498;1283;1016167;-65
2024/03/13 03:00:21;;;;;;;;;;;;;;;16.40;50.61;98585.52;67497;1284;1016502;-62
2024/03/13 03:03:23;;;;;;;;;;;;;;;16.30;50.96;98590.12;67467;1284;1016513;-63
2024/03/13 03:06:26;;;;;;;;;;;;;;;16.18;51.16;98589.20;67481;1283;1016465;-63
2024/03/13 03:09:28;;;;;;;;;;;;;;;16.09;51.48;98591.56;67494;1283;1016315;-63
2024/03/13 03:12:33;;;;;;;;;;;;;;;15.91;52.02;98592.29;67475;1283;1016560;-62
2024/03/13 03:15:36;;;;;;;;;;;;;;;16.05;52.05;98595.98;67447;1283;1016435;-62
2024/03/13 03:18:39;;;;;;;;;;;;;;;16.06;51.80;98596.42;67490;1284;1016497;-63
2024/03/13 03:21:41;;;;;;;;;;;;;;;16.16;51.45;98592.92;67489;1284;1016706;-62
2024/03/13 03:24:43;;;;;;;;;;;;;;;16.24;51.40;98592.44;67496;1282;1016432;-62
2024/03/13 03:27:46;;;;;;;;;;;;;;;16.17;51.32;98594.42;67429;1283;1016204;-63
2024/03/13 03:30:51;;;;;;;;;;;;;;;16.08;51.42;98599.47;67479;1283;1017107;-63
2024/03/13 03:33:53;;;;;;;;;;;;;;;16.13;51.27;98600.11;67504;1283;1016389;-62
2024/03/13 03:36:56;;;;;;;;;;;;;;;16.07;51.35;98601.81;67478;1283;1016298;-63
2024/03/13 03:39:58;;;;;;;;;;;;;;;16.06;51.33;98603.14;67467;1283;1016354;-62
2024/03/13 03:43:01;;;;;;;;;;;;;;;15.87;51.96;98603.73;67487;1284;1016161;-63
2024/03/13 03:46:03;;;;;;;;;;;;;;;15.89;51.56;98601.23;67509;1283;1017137;-63
2024/03/13 03:49:06;;;;;;;;;;;;;;;15.83;51.86;98602.79;67463;1283;1016442;-62
2024/03/13 03:52:09;;;;;;;;;;;;;;;15.85;51.89;98602.65;67501;1283;1018634;-62
2024/03/13 03:55:11;;;;;;;;;;;;;;;15.69;52.09;98609.97;67504;1283;1016545;-67
2024/03/13 03:58:14;;;;;;;;;;;;;;;15.68;52.17;98608.45;67447;1283;1018633;-62
2024/03/13 04:01:16;;;;;;;;;;;;;;;15.88;51.76;98607.55;67475;1283;1016486;-62
2024/03/13 04:04:19;;;;;;;;;;;;;;;15.79;51.98;98616.94;67506;1283;1018014;-62
2024/03/13 04:07:21;;;;;;;;;;;;;;;15.84;51.66;98616.29;67495;1283;1016488;-62
2024/03/13 04:10:24;;;;;;;;;;;;;;;15.78;51.87;98617.92;67476;1283;1016347;-62
2024/03/13 04:13:26;;;;;;;;;;;;;;;16.02;51.14;98617.23;67452;1283;1016412;-62
2024/03/13 04:16:31;;;;;;;;;;;;;;;16.22;50.47;98616.92;67479;1283;1016466;-63
2024/03/13 04:19:33;;;;;;;;;;;;;;;16.01;50.82;98614.84;67487;1283;1016572;-62
2024/03/13 04:22:35;;;;;;;;;;;;;;;16.16;50.27;98620.07;67502;1283;1016513;-62
2024/03/13 04:25:38;;;;;;;;;;;;;;;16.19;50.09;98621.20;67496;1283;1016473;-62
2024/03/13 04:28:43;;;;;;;;;;;;;;;16.30;49.67;98621.88;67505;1283;1016247;-67
2024/03/13 04:31:47;;;;;;;;;;;;;;;16.20;49.87;98625.35;67405;1283;1016517;-62
2024/03/13 04:34:50;;;;;;;;;;;;;;;16.14;50.17;98623.27;67484;1283;1017211;-62
2024/03/13 04:37:53;;;;;;;;;;;;;;;16.03;50.36;98628.99;67477;1283;1016304;-63
2024/03/13 04:40:55;;;;;;;;;;;;;;;15.85;50.86;98632.27;67479;1283;1016922;-63
2024/03/13 04:43:58;;;;;;;;;;;;;;;15.92;50.59;98630.45;67462;1283;1016188;-62
2024/03/13 04:47:00;;;;;;;;;;;;;;;15.82;50.93;98632.21;67490;1283;1016060;-66
2024/03/13 04:50:03;;;;;;;;;;;;;;;16.03;50.39;98630.35;67485;1283;1016245;-65
2024/03/13 04:53:06;;;;;;;;;;;;;;;15.96;50.41;98637.12;67447;1283;1016896;-65
2024/03/13 04:56:09;;;;;;;;;;;;;;;15.92;50.51;98640.48;67466;1283;1016272;-65
2024/03/13 04:59:12;;;;;;;;;;;;;;;15.95;50.27;98637.23;67437;1283;1016516;-65
2024/03/13 05:02:15;;;;;;;;;;;;;;;16.02;50.27;98639.12;67464;1283;1015973;-67
2024/03/13 05:05:17;;;;;;;;;;;;;;;15.87;50.35;98639.67;67473;1283;1016132;-67
2024/03/13 05:08:20;;;;;;;;;;;;;;;16.04;49.92;98642.09;67485;1283;1016524;-62
2024/03/13 05:11:22;;;;;;;;;;;;;;;15.42;51.56;98640.08;67445;1283;1016237;-67
2024/03/13 05:14:25;;;;;;;;;;;;;;;15.68;50.84;98647.83;67440;1283;1015799;-67
2024/03/13 05:17:27;;;;;;;;;;;;;;;15.55;51.23;98649.23;67436;1283;1016502;-67
2024/03/13 05:20:30;;;;;;;;;;;;;;;15.49;51.40;98654.20;67483;1284;1016405;-66
2024/03/13 05:23:32;;;;;;;;;;;;;;;15.39;51.50;98657.41;64902;1283;6367209;-67
2024/03/13 05:26:35;;;;;;;;;;;;;;;15.32;51.77;98665.46;67497;1283;1019224;-67
2024/03/13 05:29:38;;;;;;;;;;;;;;;15.41;51.52;98663.27;67491;1283;1016443;-63
2024/03/13 05:32:41;;;;;;;;;;;;;;;15.64;50.95;98663.86;67499;1283;1016353;-64
2024/03/13 05:35:44;;;;;;;;;;;;;;;15.77;50.93;98669.80;67501;1283;1016456;-62
2024/03/13 05:38:46;;;;;;;;;;;;;;;15.82;50.41;98673.05;67459;1283;1016429;-62
2024/03/13 05:41:49;;;;;;;;;;;;;;;15.79;50.61;98673.88;67475;1283;1016490;-65
2024/03/13 05:44:51;;;;;;;;;;;;;;;15.80;50.45;98675.70;67455;1283;1016247;-63
2024/03/13 05:47:54;;;;;;;;;;;;;;;15.86;50.42;98679.09;67510;1283;1017186;-62
2024/03/13 05:50:56;;;;;;;;;;;;;;;15.85;50.35;98681.80;67499;1283;1016500;-62
2024/03/13 05:53:59;;;;;;;;;;;;;;;15.83;50.52;98684.42;67471;1283;1016452;-62
2024/03/13 05:57:01;;;;;;;;;;;;;;;15.75;50.60;98688.32;67469;1283;1017506;-63
2024/03/13 06:00:07;;;;;;;;;;;;;;;15.76;50.68;98688.55;67494;1283;1016449;-62
2024/03/13 06:03:10;;;;;;;;;;;;;;;15.78;50.76;98692.98;67532;1284;1016672;-63
2024/03/13 06:06:12;;;;;;;;;;;;;;;15.66;51.08;98694.13;67518;1283;1016502;-67
2024/03/13 06:09:16;;;;;;;;;;;;;;;15.79;50.68;98696.73;67470;1284;1017180;-66
2024/03/13 06:12:18;;;;;;;;;;;;;;;15.81;50.66;98698.19;67517;1283;1016511;-62
2024/03/13 06:15:21;;;;;;;;;;;;;;;15.90;50.37;98701.35;67526;1283;1016525;-65
2024/03/13 06:18:23;;;;;;;;;;;;;;;15.92;50.18;98702.73;67485;1283;1017698;-62
2024/03/13 06:21:26;;;;;;;;;;;;;;;15.93;50.24;98699.80;67475;1284;1016032;-63
2024/03/13 06:24:32;;;;;;;;;;;;;;;16.03;50.06;98701.45;67496;1283;1016431;-66
2024/03/13 06:27:34;;;;;;;;;;;;;;;16.02;49.98;98703.50;67534;1283;1017854;-65
2024/03/13 06:30:37;;;;;;;;;;;;;;;15.97;50.23;98706.06;67500;1283;1016315;-67
2024/03/13 06:33:40;;;;;;;;;;;;;;;15.77;50.60;98708.54;67495;1283;1016436;-66
2024/03/13 06:36:43;;;;;;;;;;;;;;;15.85;50.51;98709.83;67495;1283;1016099;-62
2024/03/13 06:39:45;;;;;;;;;;;;;;;16.00;50.46;98715.33;67504;1284;1016436;-62
2024/03/13 06:42:48;;;;;;;;;;;;;;;15.82;50.62;98719.95;67455;1283;1016486;-62
2024/03/13 06:45:50;;;;;;;;;;;;;;;15.83;50.64;98721.63;67442;1283;1016451;-66
2024/03/13 06:48:54;;;;;;;;;;;;;;;15.98;50.36;98728.55;67503;1283;1016191;-63
2024/03/13 06:51:56;;;;;;;;;;;;;;;16.06;50.10;98734.02;67489;1283;1016443;-67
2024/03/13 06:54:59;;;;;;;;;;;;;;;16.03;50.22;98733.17;67481;1284;1016456;-67
2024/03/13 06:58:01;;;;;;;;;;;;;;;16.06;50.09;98739.33;67512;1283;1018545;-62
2024/03/13 07:01:04;;;;;;;;;;;;;;;15.96;50.34;98744.23;67487;1284;1016074;-62
2024/03/13 07:04:06;;;;;;;;;;;;;;;16.11;50.04;98743.09;67474;1283;1016337;-62
2024/03/13 07:07:09;;;;;;;;;;;;;;;16.27;49.70;98745.42;67482;1283;1016424;-67
2024/03/13 07:10:12;;;;;;;;;;;;;;;16.29;50.01;98748.45;67462;1283;1016500;-66
2024/03/13 07:13:15;;;;;;;;;;;;;;;16.33;50.07;98747.44;67486;1283;1018713;-63
2024/03/13 07:16:19;;;;;;;;;;;;;;;16.36;49.94;98751.70;67473;1284;1016445;-65
2024/03/13 07:19:23;;;;;;;;;;;;;;;16.21;49.94;98755.45;67488;1284;1016453;-62
2024/03/13 07:22:25;;;;;;;;;;;;;;;16.35;49.83;98754.99;67498;1283;1016520;-63
2024/03/13 07:25:28;;;;;;;;;;;;;;;16.37;49.73;98759.82;67480;1283;1016472;-66
2024/03/13 07:28:32;;;;;;;;;;;;;;;16.36;49.64;98764.46;67468;1283;1016378;-63
2024/03/13 07:31:35;;;;;;;;;;;;;;;16.33;49.76;98760.61;67509;1283;1016048;-62
2024/03/13 07:34:37;;;;;;;;;;;;;;;16.36;49.65;98767.93;67517;1283;1016018;-64
2024/03/13 07:37:40;;;;;;;;;;;;;;;16.13;49.94;98768.16;67489;1283;1016457;-63
2024/03/13 07:40:42;;;;;;;;;;;;;;;16.20;49.65;98766.34;67449;1283;1016423;-63
2024/03/13 07:43:45;;;;;;;;;;;;;;;16.19;49.68;98769.95;67458;1284;1016070;-63
2024/03/13 07:46:48;;;;;;;;;;;;;;;16.13;49.93;98771.48;67493;1283;1016420;-62
2024/03/13 07:49:50;;;;;;;;;;;;;;;16.01;50.31;98769.88;67485;1283;1016475;-67
2024/03/13 07:52:53;;;;;;;;;;;;;;;15.94;50.42;98773.09;67456;1283;1016429;-62
2024/03/13 07:55:55;;;;;;;;;;;;;;;16.05;50.16;98771.30;67498;1283;1016459;-63
2024/03/13 07:58:57;;;;;;;;;;;;;;;16.27;49.84;98772.44;67495;1283;1016463;-64
2024/03/13 08:02:00;;;;;;;;;;;;;;;16.23;49.87;98774.16;67489;1283;1016696;-63
2024/03/13 08:05:02;;;;;;;;;;;;;;;16.45;49.45;98776.25;67478;1283;1016481;-66
2024/03/13 08:08:06;;;;;;;;;;;;;;;16.58;49.03;98777.89;67492;1283;1017144;-67
2024/03/13 08:11:08;;;;;;;;;;;;;;;16.58;48.89;98780.06;67477;1283;1017312;-63
2024/03/13 08:14:11;;;;;;;;;;;;;;;16.50;48.86;98781.29;67458;1283;1016485;-65
2024/03/13 08:17:13;;;;;;;;;;;;;;;16.43;49.19;98782.08;67474;1283;1016205;-62
2024/03/13 08:20:16;;;;;;;;;;;;;;;16.38;49.46;98784.71;67469;1283;1016359;-64
2024/03/13 08:23:19;;;;;;;;;;;;;;;16.30;49.42;98785.78;67477;1283;1016414;-65
2024/03/13 08:26:21;;;;;;;;;;;;;;;16.25;49.56;98788.17;67507;1283;1016412;-63
2024/03/13 08:29:24;;;;;;;;;;;;;;;16.30;49.34;98789.80;67496;1283;1017291;-62
2024/03/13 08:32:26;;;;;;;;;;;;;;;16.38;49.30;98793.77;67508;1283;1018215;-63
2024/03/13 08:35:29;;;;;;;;;;;;;;;16.31;49.30;98794.32;67491;1283;1016373;-63
2024/03/13 08:38:32;;;;;;;;;;;;;;;16.33;49.31;98794.21;67477;1283;1016120;-63
2024/03/13 08:41:35;;;;;;;;;;;;;;;16.32;49.33;98795.12;67478;1283;1016369;-64
2024/03/13 08:44:37;;;;;;;;;;;;;;;16.34;49.56;98798.19;67485;1283;1016622;-63
2024/03/13 08:47:40;;;;;;;;;;;;;;;16.36;49.23;98802.95;67498;1283;1016364;-66
2024/03/13 08:50:42;;;;;;;;;;;;;;;16.34;49.23;98808.20;67510;1283;1016550;-63
2024/03/13 08:53:47;;;;;;;;;;;;;;;16.30;49.48;98809.19;67491;1283;1016325;-66
2024/03/13 08:56:49;;;;;;;;;;;;;;;16.19;49.65;98814.74;67466;1283;1016198;-66
2024/03/13 08:59:52;;;;;;;;;;;;;;;16.10;50.05;98814.77;67476;1283;1016490;-65
2024/03/13 09:02:56;;;;;;;;;;;;;;;16.09;50.41;98820.02;67508;1283;1016419;-64
2024/03/13 09:05:59;;;;;;;;;;;;;;;16.23;50.10;98819.56;67453;1283;1016816;-67
2024/03/13 09:09:03;;;;;;;;;;;;;;;16.13;50.15;98823.17;67499;1283;1016367;-68
2024/03/13 09:12:07;;;;;;;;;;;;;;;16.07;50.08;98831.60;67471;1283;1016392;-63
2024/03/13 09:15:09;;;;;;;;;;;;;;;16.03;50.06;98834.64;67449;1283;1016488;-63
2024/03/13 09:18:12;;;;;;;;;;;;;;;16.15;49.85;98828.70;67488;1283;1016392;-66
2024/03/13 09:21:16;;;;;;;;;;;;;;;16.12;49.96;98827.01;67464;1283;1016417;-63
2024/03/13 09:24:19;;;;;;;;;;;;;;;16.13;49.79;98835.17;67446;1283;1016151;-63
2024/03/13 09:27:22;;;;;;;;;;;;;;;16.15;49.86;98832.41;67496;1283;1016420;-66
2024/03/13 09:30:24;;;;;;;;;;;;;;;16.19;49.65;98837.48;67473;1283;1016330;-62
2024/03/13 09:33:27;;;;;;;;;;;;;;;16.27;49.68;98842.70;67476;1283;1018741;-67
2024/03/13 09:36:29;;;;;;;;;;;;;;;16.27;49.59;98845.13;67456;1283;1016533;-66
2024/03/13 09:39:32;;;;;;;;;;;;;;;16.34;49.24;98844.90;67499;1283;1016232;-63
2024/03/13 09:42:36;;;;;;;;;;;;;;;16.52;49.05;98844.61;67446;1283;1018245;-67
2024/03/13 09:45:39;;;;;;;;;;;;;;;16.27;49.45;98853.09;67478;1283;1016541;-65
2024/03/13 09:48:42;;;;;;;;;;;;;;;16.38;49.46;98856.42;67475;1283;1018626;-64
2024/03/13 09:51:45;;;;;;;;;;;;;;;16.49;49.13;98855.96;67480;1283;1016501;-66
2024/03/13 09:54:47;;;;;;;;;;;;;;;16.52;49.30;98855.37;67469;1283;1016325;-67
2024/03/13 09:57:51;;;;;;;;;;;;;;;16.50;49.46;98856.64;67498;1283;1016340;-64
2024/03/13 10:00:56;;;;;;;;;;;;;;;16.62;49.37;98859.83;67485;1283;1016334;-63
2024/03/13 10:04:02;;;;;;;;;;;;;;;16.60;49.37;98863.16;67502;1283;1016379;-62
2024/03/13 10:07:05;;;;;;;;;;;;;;;16.57;49.56;98866.05;67515;1283;1016343;-62
2024/03/13 10:10:08;;;;;;;;;;;;;;;16.63;49.22;98864.66;67441;1283;1016385;-63
2024/03/13 10:13:11;;;;;;;;;;;;;;;16.41;49.81;98866.34;67477;1283;1016437;-67
2024/03/13 10:16:13;;;;;;;;;;;;;;;16.36;49.91;98866.21;67455;1283;1016499;-67
2024/03/13 10:19:17;;;;;;;;;;;;;;;16.37;49.70;98867.11;67486;1283;1016494;-62
2024/03/13 10:22:20;;;;;;;;;;;;;;;16.43;49.55;98864.64;67494;1283;1016322;-63
2024/03/13 10:25:23;;;;;;;;;;;;;;;16.52;49.41;98865.13;67499;1283;1016377;-63
2024/03/13 10:28:25;;;;;;;;;;;;;;;16.83;48.68;98867.19;67503;1283;1016332;-66
2024/03/13 10:31:27;;;;;;;;;;;;;;;17.01;48.32;98869.96;67471;1283;1016553;-66
2024/03/13 10:34:30;;;;;;;;;;;;;;;16.89;48.77;98867.30;67475;1283;1017262;-67
2024/03/13 10:37:33;;;;;;;;;;;;;;;17.02;48.23;98868.84;67480;1283;1015855;-67
2024/03/13 10:40:38;;;;;;;;;;;;;;;17.13;48.34;98871.21;67463;1283;1016504;-67
2024/03/13 10:43:41;;;;;;;;;;;;;;;17.26;48.37;98866.33;67483;1283;1016307;-63
2024/03/13 10:46:43;;;;;;;;;;;;;;;17.49;48.39;98863.76;67489;1283;1016241;-66
2024/03/13 10:49:46;;;;;;;;;;;;;;;17.68;47.95;98862.51;67454;1283;1016042;-64
2024/03/13 10:52:48;;;;;;;;;;;;;;;17.89;47.65;98859.75;67463;1283;1018782;-67
2024/03/13 10:55:51;;;;;;;;;;;;;;;17.46;47.56;98862.83;67497;1283;1016782;-67
2024/03/13 10:58:55;;;;;;;;;;;;;;;17.18;47.80;98867.95;67455;1283;1016506;-63
2024/03/13 11:01:58;;;;;;;;;;;;;;;17.22;47.93;98871.49;67469;1283;1016512;-66
2024/03/13 11:05:00;;;;;;;;;;;;;;;17.25;47.90;98867.29;67491;1283;1016296;-65
2024/03/13 11:08:03;;;;;;;;;;;;;;;17.35;47.70;98868.54;67510;1283;1018838;-63
2024/03/13 11:11:06;;;;;;;;;;;;;;;17.19;48.39;98870.00;67530;1283;1016406;-66
2024/03/13 11:14:09;;;;;;;;;;;;;;;17.24;48.11;98870.62;67448;1283;1016069;-67
2024/03/13 11:17:12;;;;;;;;;;;;;;;17.29;47.88;98866.23;67462;1283;1016264;-66
2024/03/13 11:20:15;;;;;;;;;;;;;;;17.29;47.89;98870.00;67450;1283;1016378;-67
2024/03/13 11:23:19;;;;;;;;;;;;;;;17.41;47.72;98863.44;67458;1283;1016761;-64
2024/03/13 11:26:21;;;;;;;;;;;;;;;17.67;47.21;98859.36;67506;1283;1018877;-63
2024/03/13 11:29:24;;;;;;;;;;;;;;;17.86;46.73;98860.48;67486;1283;1016255;-67
2024/03/13 11:32:26;;;;;;;;;;;;;;;17.73;46.69;98859.04;67469;1283;1016378;-63
2024/03/13 11:35:29;;;;;;;;;;;;;;;17.54;47.13;98861.20;67458;1283;1016315;-67
2024/03/13 11:38:33;;;;;;;;;;;;;;;17.24;47.33;98865.41;67490;1283;1018499;-63
2024/03/13 11:41:36;;;;;;;;;;;;;;;17.14;47.75;98868.61;67466;1283;1016383;-67
2024/03/13 11:44:39;;;;;;;;;;;;;;;17.26;47.85;98867.77;67494;1283;1016331;-67
2024/03/13 11:47:41;;;;;;;;;;;;;;;17.54;47.66;98864.11;67489;1283;1016342;-63
2024/03/13 11:50:48;;;;;;;;;;;;;;;17.69;47.39;98860.05;67492;1283;1016725;-65
2024/03/13 11:53:51;;;;;;;;;;;;;;;18.02;46.99;98859.80;67507;1283;1016429;-66
2024/03/13 11:56:54;;;;;;;;;;;;;;;18.15;46.78;98856.28;67515;1283;1016545;-63
2024/03/13 11:59:57;;;;;;;;;;;;;;;18.23;46.70;98860.16;67466;1283;1016382;-65
2024/03/13 12:03:00;;;;;;;;;;;;;;;18.47;46.25;98859.92;67507;1283;1017513;-65
2024/03/13 12:06:02;;;;;;;;;;;;;;;18.41;45.60;98859.60;67474;1283;1018024;-66
2024/03/13 12:09:09;;;;;;;;;;;;;;;18.48;45.71;98860.73;67468;1283;1016244;-64
2024/03/13 12:12:12;;;;;;;;;;;;;;;18.20;46.05;98865.71;67516;1283;1016575;-66
2024/03/13 12:15:15;;;;;;;;;;;;;;;18.16;45.98;98859.64;67514;1283;1016715;-66
2024/03/13 12:18:18;;;;;;;;;;;;;;;18.09;46.23;98859.30;67504;1283;1016309;-66
2024/03/13 12:21:20;;;;;;;;;;;;;;;18.24;46.04;98863.42;67506;1283;1016286;-66
2024/03/13 12:24:23;;;;;;;;;;;;;;;18.48;45.52;98867.74;67465;1283;1016474;-63
2024/03/13 12:27:27;;;;;;;;;;;;;;;18.61;45.35;98860.86;67460;1283;1016473;-64
2024/03/13 12:30:30;;;;;;;;;;;;;;;18.54;45.16;98860.83;67467;1283;1016293;-64
2024/03/13 12:33:33;;;;;;;;;;;;;;;18.45;45.41;98855.64;67464;1283;1016179;-66
2024/03/13 12:36:36;;;;;;;;;;;;;;;18.43;45.51;98857.27;67493;1283;1016392;-67
2024/03/13 12:39:39;;;;;;;;;;;;;;;18.23;45.50;98855.02;67496;1283;1016317;-67
2024/03/13 12:42:41;;;;;;;;;;;;;;;18.26;45.88;98855.52;67478;1283;1016341;-67
2024/03/13 12:45:44;;;;;;;;;;;;;;;18.33;45.30;98853.95;67490;1283;1016445;-65
2024/03/13 12:48:46;;;;;;;;;;;;;;;18.49;45.21;98853.83;67501;1283;1016364;-66
2024/03/13 12:51:49;;;;;;;;;;;;;;;18.51;44.61;98855.33;67485;1283;1016304;-66
2024/03/13 12:54:51;;;;;;;;;;;;;;;18.50;45.09;98856.26;67486;1283;1016441;-67
2024/03/13 12:57:59;;;;;;;;;;;;;;;18.46;45.46;98855.02;67500;1283;1016287;-63
2024/03/13 13:01:01;;;;;;;;;;;;;;;18.58;45.00;98855.84;67475;1283;1016485;-67
2024/03/13 13:04:04;;;;;;;;;;;;;;;18.65;44.52;98855.88;67505;1283;1016277;-62
2024/03/13 13:07:07;;;;;;;;;;;;;;;18.72;44.15;98856.13;67497;1283;1016348;-67
2024/03/13 13:10:11;;;;;;;;;;;;;;;18.92;44.53;98858.41;67485;1283;1016207;-67
2024/03/13 13:13:13;;;;;;;;;;;;;;;19.16;43.91;98857.73;67467;1283;1016532;-65
2024/03/13 13:16:17;;;;;;;;;;;;;;;19.19;43.65;98859.52;67479;1283;1016320;-67
2024/03/13 13:19:20;;;;;;;;;;;;;;;19.21;42.93;98860.45;67496;1283;1017953;-67
2024/03/13 13:22:22;;;;;;;;;;;;;;;19.53;43.26;98860.73;67498;1283;1016432;-67
2024/03/13 13:25:26;;;;;;;;;;;;;;;19.81;43.01;98862.59;67498;1283;1016448;-67
2024/03/13 13:28:29;;;;;;;;;;;;;;;20.02;42.88;98862.46;67483;1283;1016371;-67
2024/03/13 13:31:32;;;;;;;;;;;;;;;20.19;41.33;98864.49;67490;1283;1017975;-64
2024/03/13 13:34:35;;;;;;;;;;;;;;;20.22;41.26;98864.75;67496;1283;1016035;-67
2024/03/13 13:37:37;;;;;;;;;;;;;;;20.22;40.62;98858.67;67441;1283;1016391;-63
2024/03/13 13:40:40;;;;;;;;;;;;;;;20.18;40.16;98863.23;67493;1283;1016934;-67
2024/03/13 13:43:42;;;;;;;;;;;;;;;20.14;40.24;98856.70;67506;1283;1016295;-67
2024/03/13 13:46:45;;;;;;;;;;;;;;;19.88;40.25;98860.02;67507;1283;1016304;-64
2024/03/13 13:49:47;;;;;;;;;;;;;;;19.79;40.14;98864.36;67473;1283;1016007;-67
2024/03/13 13:52:50;;;;;;;;;;;;;;;19.85;40.63;98858.85;67465;1283;1016493;-67
2024/03/13 13:55:52;;;;;;;;;;;;;;;19.79;40.36;98859.91;67473;1283;1016961;-65
2024/03/13 13:58:55;;;;;;;;;;;;;;;19.83;40.71;98864.38;67508;1283;1016540;-66
2024/03/13 14:01:57;;;;;;;;;;;;;;;19.93;40.57;98866.94;67463;1283;1016379;-67
2024/03/13 14:05:00;;;;;;;;;;;;;;;19.90;39.94;98864.05;67477;1283;1016375;-67
2024/03/13 14:08:04;;;;;;;;;;;;;;;19.85;39.43;98861.64;67505;1283;1015817;-67
2024/03/13 14:11:07;;;;;;;;;;;;;;;20.06;39.90;98861.89;67501;1283;1016493;-67
2024/03/13 14:14:09;;;;;;;;;;;;;;;20.11;40.16;98857.84;67479;1283;1016127;-67
2024/03/13 14:17:12;;;;;;;;;;;;;;;20.35;39.97;98859.66;67474;1283;1017036;-67
2024/03/13 14:20:18;;;;;;;;;;;;;;;20.44;39.67;98860.27;67506;1283;1016482;-64
2024/03/13 14:23:22;;;;;;;;;;;;;;;20.47;39.13;98864.56;67488;1283;1016442;-67
2024/03/13 14:26:25;;;;;;;;;;;;;;;20.54;39.10;98859.95;67507;1283;1017048;-66
2024/03/13 14:29:28;;;;;;;;;;;;;;;20.47;38.83;98862.41;67479;1283;1016482;-67
2024/03/13 14:32:30;;;;;;;;;;;;;;;20.52;38.85;98858.15;67517;1283;1016421;-67
2024/03/13 14:35:33;;;;;;;;;;;;;;;20.63;38.94;98860.13;67516;1283;1016760;-67
2024/03/13 14:38:36;;;;;;;;;;;;;;;20.63;38.47;98862.23;67515;1283;1016470;-66
2024/03/13 14:41:38;;;;;;;;;;;;;;;20.62;38.38;98861.21;67486;1283;1016573;-67
2024/03/13 14:44:42;;;;;;;;;;;;;;;20.48;38.40;98866.03;67501;1282;1016416;-67
2024/03/13 14:47:46;;;;;;;;;;;;;;;20.49;38.74;98867.05;67484;1283;1016022;-66
2024/03/13 14:50:49;;;;;;;;;;;;;;;20.54;38.71;98865.05;67488;1283;1016137;-67
2024/03/13 14:53:52;;;;;;;;;;;;;;;20.49;38.94;98867.31;67475;1283;1015786;-67
2024/03/13 14:56:54;;;;;;;;;;;;;;;20.58;38.85;98867.01;67480;1283;1016093;-67
2024/03/13 14:59:59;;;;;;;;;;;;;;;20.63;38.66;98865.39;67507;1283;1016597;-67
2024/03/13 15:03:02;;;;;;;;;;;;;;;20.48;39.04;98871.06;67499;1283;1016244;-64
2024/03/13 15:06:05;;;;;;;;;;;;;;;20.41;39.11;98868.02;67486;1283;1016436;-64
2024/03/13 15:09:12;;;;;;;;;;;;;;;20.45;38.78;98868.26;67504;1283;1016485;-66
2024/03/13 15:12:15;;;;;;;;;;;;;;;20.48;38.52;98865.70;67480;1283;1016175;-66
2024/03/13 15:15:17;;;;;;;;;;;;;;;20.33;39.22;98866.80;67495;1283;1016422;-67
2024/03/13 15:18:22;;;;;;;;;;;;;;;20.25;39.11;98865.91;67507;1283;1016302;-67
2024/03/13 15:21:25;;;;;;;;;;;;;;;20.30;38.92;98865.75;67501;1283;1018413;-67
2024/03/13 15:24:28;;;;;;;;;;;;;;;20.21;38.89;98866.44;67501;1283;1016168;-66
2024/03/13 15:27:31;;;;;;;;;;;;;;;20.04;39.37;98870.02;67478;1283;1016745;-63
2024/03/13 15:30:36;;;;;;;;;;;;;;;20.22;39.36;98869.38;67461;1283;1016443;-65
2024/03/13 15:33:38;;;;;;;;;;;;;;;20.42;39.43;98869.43;67530;1283;1018944;-66
2024/03/13 15:36:42;;;;;;;;;;;;;;;20.59;39.70;98868.67;67510;1283;1016375;-63
2024/03/13 15:39:44;;;;;;;;;;;;;;;20.72;39.36;98869.45;67506;1283;1016893;-67
2024/03/13 15:42:47;;;;;;;;;;;;;;;20.73;39.34;98878.22;67524;1283;1016444;-63